createdAt,value
2023-03-05T00:02:50.476Z,93847.00
2023-03-05T00:06:55.848Z,93839.00
2023-03-05T00:11:02.976Z,93832.00
2023-03-05T00:15:07.757Z,93848.00
2023-03-05T00:19:12.208Z,93822.00
2023-03-05T00:23:16.255Z,93844.00
2023-03-05T00:27:46.521Z,93846.00
2023-03-05T00:31:52.402Z,93851.00
2023-03-05T00:35:56.278Z,93836.00
2023-03-05T00:40:25.066Z,93845.00
2023-03-05T00:44:30.346Z,93810.00
2023-03-05T00:48:33.959Z,93840.00
2023-03-05T00:53:03.009Z,93822.00
2023-03-05T00:57:07.110Z,93817.00
2023-03-05T01:01:12.151Z,93825.00
2023-03-05T01:05:16.772Z,93806.00
2023-03-05T01:09:21.898Z,93821.00
2023-03-05T01:13:25.533Z,93794.00
2023-03-05T01:17:30.800Z,93801.00
2023-03-05T01:21:35.830Z,93814.00
2023-03-05T01:25:39.789Z,93768.00
2023-03-05T01:29:57.967Z,93752.00
2023-03-05T01:34:03.540Z,93780.00
2023-03-05T01:38:07.111Z,93772.00
2023-03-05T01:47:47.227Z,93757.00
2023-03-05T01:52:05.191Z,93768.00
2023-03-05T01:56:08.914Z,93771.00
2023-03-05T02:00:17.663Z,93730.00
2023-03-05T02:04:25.174Z,93739.00
2023-03-05T02:08:30.309Z,93761.00
2023-03-05T02:12:49.700Z,93759.00
2023-03-05T02:16:53.662Z,93748.00
2023-03-05T02:21:06.159Z,93759.00
2023-03-05T02:25:21.361Z,93746.00
2023-03-05T02:29:26.025Z,93739.00
2023-03-05T02:33:35.493Z,93763.00
2023-03-05T02:37:41.265Z,93750.00
2023-03-05T02:42:14.076Z,93750.00
2023-03-05T02:46:17.887Z,93755.00
2023-03-05T02:50:21.739Z,93738.00
2023-03-05T02:54:41.370Z,93727.00
2023-03-05T02:58:44.969Z,93723.00
2023-03-05T03:07:05.733Z,93724.00
2023-03-05T03:11:12.841Z,93721.00
2023-03-05T03:15:17.861Z,93708.00
2023-03-05T03:19:21.570Z,93722.00
2023-03-05T03:23:25.368Z,93735.00
2023-03-05T03:27:33.362Z,93721.00
2023-03-05T03:31:37.389Z,93698.00
2023-03-05T03:36:18.105Z,93714.00
2023-03-05T03:41:19.092Z,93720.00
2023-03-05T03:45:24.511Z,93719.00
2023-03-05T03:49:28.540Z,93716.00
2023-03-05T03:53:33.286Z,93697.00
2023-03-05T03:57:37.986Z,93687.00
2023-03-05T04:01:43.371Z,93695.00
2023-03-05T04:05:46.987Z,93672.00
2023-03-05T04:09:51.977Z,93671.00
2023-03-05T04:13:55.569Z,93689.00
2023-03-05T04:18:00.791Z,93658.00
2023-03-05T04:22:31.851Z,93670.00
2023-03-05T04:26:35.566Z,93664.00
2023-03-05T04:30:39.195Z,93668.00
2023-03-05T04:35:02.065Z,93657.00
2023-03-05T04:39:06.269Z,93650.00
2023-03-05T04:43:18.535Z,93638.00
2023-03-05T04:47:22.173Z,93658.00
2023-03-05T04:51:28.480Z,93640.00
2023-03-05T04:55:32.607Z,93644.00
2023-03-05T04:59:36.230Z,93660.00
2023-03-05T05:04:05.920Z,93657.00
2023-03-05T05:08:43.571Z,93643.00
2023-03-05T05:12:47.266Z,93621.00
2023-03-05T05:16:50.842Z,93637.00
2023-03-05T05:21:46.820Z,93646.00
2023-03-05T05:25:59.662Z,93643.00
2023-03-05T05:30:04.368Z,93609.00
2023-03-05T05:34:08.233Z,93646.00
2023-03-05T05:38:11.852Z,93618.00
2023-03-05T05:42:51.242Z,93640.00
2023-03-05T05:46:56.279Z,93654.00
2023-03-05T05:51:17.316Z,93653.00
2023-03-05T05:55:21.064Z,93633.00
2023-03-05T05:59:24.775Z,93655.00
2023-03-05T06:03:34.719Z,93653.00
2023-03-05T06:07:43.917Z,93637.00
2023-03-05T06:11:47.649Z,93655.00
2023-03-05T06:20:40.465Z,93637.00
2023-03-05T06:24:44.114Z,93665.00
2023-03-05T06:28:51.322Z,93658.00
2023-03-05T06:32:54.819Z,93652.00
2023-03-05T06:36:59.965Z,93660.00
2023-03-05T06:41:17.554Z,93630.00
2023-03-05T06:45:21.105Z,93653.00
2023-03-05T06:49:32.190Z,93657.00
2023-03-05T06:53:37.171Z,93656.00
2023-03-05T06:57:42.092Z,93633.00
2023-03-05T07:01:46.329Z,93673.00
2023-03-05T07:05:52.307Z,93635.00
2023-03-05T07:09:57.483Z,93668.00
2023-03-05T07:14:01.252Z,93658.00
2023-03-05T07:18:29.897Z,93665.00
2023-03-05T07:22:33.742Z,93647.00
2023-03-05T07:26:38.887Z,93656.00
2023-03-05T07:30:42.529Z,93657.00
2023-03-05T07:35:40.554Z,93664.00
2023-03-05T07:39:46.885Z,93672.00
2023-03-05T07:43:54.227Z,93649.00
2023-03-05T07:47:57.977Z,93681.00
2023-03-05T07:52:08.218Z,93667.00
2023-03-05T07:56:11.905Z,93646.00
2023-03-05T08:00:42.859Z,93669.00
2023-03-05T08:04:48.241Z,93654.00
2023-03-05T08:08:51.983Z,93656.00
2023-03-05T08:12:55.578Z,93640.00
2023-03-05T08:17:02.889Z,93652.00
2023-03-05T08:21:07.147Z,93654.00
2023-03-05T08:25:11.432Z,93650.00
2023-03-05T08:29:15.098Z,93651.00
2023-03-05T08:33:20.598Z,93643.00
2023-03-05T08:37:33.145Z,93643.00
2023-03-05T08:41:36.737Z,93631.00
2023-03-05T08:45:49.852Z,93613.00
2023-03-05T08:49:57.525Z,93622.00
2023-03-05T08:54:31.674Z,93648.00
2023-03-05T08:58:35.413Z,93641.00
2023-03-05T09:02:39.221Z,93613.00
2023-03-05T09:07:10.759Z,93653.00
2023-03-05T09:11:15.019Z,93620.00
2023-03-05T09:15:18.771Z,93618.00
2023-03-05T09:19:23.836Z,93632.00
2023-03-05T09:23:28.861Z,93642.00
2023-03-05T09:27:35.760Z,93626.00
2023-03-05T09:32:31.626Z,93632.00
2023-03-05T09:36:35.860Z,93631.00
2023-03-05T09:40:47.942Z,93602.00
2023-03-05T09:45:10.859Z,93618.00
2023-03-05T09:49:29.115Z,93623.00
2023-03-05T09:53:39.961Z,93611.00
2023-03-05T09:57:49.618Z,93604.00
2023-03-05T10:01:54.495Z,93629.00
2023-03-05T10:06:30.622Z,93623.00
2023-03-05T10:10:41.664Z,93622.00
2023-03-05T10:14:50.395Z,93589.00
2023-03-05T10:19:03.993Z,93594.00
2023-03-05T10:23:31.884Z,93585.00
2023-03-05T10:27:52.611Z,93601.00
2023-03-05T10:32:09.913Z,93578.00
2023-03-05T10:36:32.778Z,93613.00
2023-03-05T10:40:40.548Z,93575.00
2023-03-05T10:45:22.711Z,93595.00
2023-03-05T10:49:33.802Z,93586.00
2023-03-05T10:53:47.138Z,93574.00
2023-03-05T10:57:50.890Z,93571.00
2023-03-05T11:02:08.933Z,93588.00
2023-03-05T11:06:41.504Z,93593.00
2023-03-05T11:10:45.123Z,93577.00
2023-03-05T11:15:08.083Z,93563.00
2023-03-05T11:19:20.945Z,93578.00
2023-03-05T11:23:26.630Z,93550.00
2023-03-05T11:27:54.984Z,93582.00
2023-03-05T11:32:18.536Z,93579.00
2023-03-05T11:36:27.779Z,93581.00
2023-03-05T11:40:35.976Z,93558.00
2023-03-05T11:44:56.838Z,93558.00
2023-03-05T11:49:00.597Z,93569.00
2023-03-05T11:53:16.294Z,93557.00
2023-03-05T11:57:25.470Z,93541.00
2023-03-05T12:01:32.811Z,93558.00
2023-03-05T12:05:41.572Z,93531.00
2023-03-05T12:09:48.043Z,93548.00
2023-03-05T12:14:00.593Z,93537.00
2023-03-05T12:18:17.279Z,93549.00
2023-03-05T12:22:23.496Z,93539.00
2023-03-05T12:27:07.836Z,93535.00
2023-03-05T12:31:30.804Z,93525.00
2023-03-05T12:35:37.548Z,93516.00
2023-03-05T12:40:36.606Z,93514.00
2023-03-05T12:45:19.800Z,93508.00
2023-03-05T12:49:40.240Z,93517.00
2023-03-05T12:53:43.907Z,93496.00
2023-03-05T12:57:53.630Z,93493.00
2023-03-05T13:02:00.997Z,93497.00
2023-03-05T13:06:08.370Z,93480.00
2023-03-05T13:10:28.184Z,93467.00
2023-03-05T13:14:39.443Z,93468.00
2023-03-05T13:18:43.345Z,93492.00
2023-03-05T13:22:48.450Z,93482.00
2023-03-05T13:27:20.962Z,93468.00
2023-03-05T13:31:25.025Z,93478.00
2023-03-05T13:35:28.840Z,93465.00
2023-03-05T13:39:36.875Z,93445.00
2023-03-05T13:43:47.817Z,93450.00
2023-03-05T13:47:58.472Z,93465.00
2023-03-05T13:52:03.103Z,93454.00
2023-03-05T13:56:20.228Z,93439.00
2023-03-05T14:00:49.086Z,93444.00
2023-03-05T14:04:57.702Z,93462.00
2023-03-05T14:09:22.922Z,93420.00
2023-03-05T14:13:28.388Z,93446.00
2023-03-05T14:17:41.989Z,93434.00
2023-03-05T14:21:48.332Z,93430.00
2023-03-05T14:26:29.936Z,93419.00
2023-03-05T14:30:36.822Z,93430.00
2023-03-05T14:34:43.621Z,93412.00
2023-03-05T14:38:47.259Z,93418.00
2023-03-05T14:42:58.110Z,93414.00
2023-03-05T14:47:03.135Z,93422.00
2023-03-05T14:51:08.855Z,93418.00
2023-03-05T14:56:12.620Z,93422.00
2023-03-05T15:00:21.184Z,93417.00
2023-03-05T15:04:26.519Z,93402.00
2023-03-05T15:08:32.560Z,93401.00
2023-03-05T15:12:36.776Z,93381.00
2023-03-05T15:16:52.707Z,93398.00
2023-03-05T15:20:58.021Z,93404.00
2023-03-05T15:25:07.979Z,93397.00
2023-03-05T15:29:11.635Z,93391.00
2023-03-05T15:33:18.775Z,93371.00
2023-03-05T15:37:23.846Z,93389.00
2023-03-05T15:41:32.474Z,93387.00
2023-03-05T15:45:36.030Z,93388.00
2023-03-05T15:49:47.900Z,93389.00
2023-03-05T15:53:52.909Z,93371.00
2023-03-05T15:58:38.431Z,93393.00
2023-03-05T16:02:41.995Z,93385.00
2023-03-05T16:06:47.458Z,93370.00
2023-03-05T16:10:52.919Z,93366.00
2023-03-05T16:14:56.495Z,93390.00
2023-03-05T16:19:50.287Z,93388.00
2023-03-05T16:24:44.749Z,93392.00
2023-03-05T16:28:49.940Z,93387.00
2023-03-05T16:32:58.480Z,93359.00
2023-03-05T16:37:07.156Z,93383.00
2023-03-05T16:41:23.274Z,93374.00
2023-03-05T16:45:29.490Z,93361.00
2023-03-05T16:49:33.390Z,93373.00
2023-03-05T16:53:37.715Z,93387.00
2023-03-05T16:57:42.096Z,93380.00
2023-03-05T17:01:47.354Z,93374.00
2023-03-05T17:06:16.548Z,93377.00
2023-03-05T17:10:20.429Z,93368.00
2023-03-05T17:14:24.163Z,93375.00
2023-03-05T17:18:34.092Z,93396.00
2023-03-05T17:22:37.695Z,93369.00
2023-03-05T17:26:41.282Z,93368.00
2023-03-05T17:30:48.312Z,93386.00
2023-03-05T17:34:56.351Z,93367.00
2023-03-05T17:38:59.910Z,93369.00
2023-03-05T17:43:55.446Z,93383.00
2023-03-05T17:47:59.274Z,93379.00
2023-03-05T17:52:04.516Z,93377.00
2023-03-05T17:56:09.589Z,93382.00
2023-03-05T18:00:16.616Z,93369.00
2023-03-05T18:04:48.121Z,93380.00
2023-03-05T18:08:53.809Z,93373.00
2023-03-05T18:19:40.707Z,93378.00
2023-03-05T18:23:44.555Z,93342.00
2023-03-05T18:27:49.745Z,93370.00
2023-03-05T18:32:18.692Z,93371.00
2023-03-05T18:36:26.397Z,93376.00
2023-03-05T18:40:32.757Z,93369.00
2023-03-05T18:44:37.774Z,93349.00
2023-03-05T18:48:56.981Z,93367.00
2023-03-05T18:53:00.788Z,93343.00
2023-03-05T18:57:04.388Z,93365.00
2023-03-05T19:01:35.264Z,93356.00
2023-03-05T19:05:40.351Z,93324.00
2023-03-05T19:10:12.984Z,93353.00
2023-03-05T19:14:16.624Z,93343.00
2023-03-05T19:19:16.789Z,93352.00
2023-03-05T19:23:22.252Z,93321.00
2023-03-05T19:27:26.079Z,93333.00
2023-03-05T19:31:48.943Z,93357.00
2023-03-05T19:35:52.584Z,93319.00
2023-03-05T19:39:57.766Z,93333.00
2023-03-05T19:44:01.928Z,93338.00
2023-03-05T19:48:05.721Z,93345.00
2023-03-05T19:52:09.747Z,93352.00
2023-03-05T19:56:33.529Z,93343.00
2023-03-05T20:00:37.402Z,93349.00
2023-03-05T20:04:42.096Z,93339.00
2023-03-05T20:08:46.364Z,93330.00
2023-03-05T20:12:58.046Z,93353.00
2023-03-05T20:17:01.728Z,93352.00
2023-03-05T20:21:05.483Z,93332.00
2023-03-05T20:25:35.034Z,93351.00
2023-03-05T20:29:40.188Z,93352.00
2023-03-05T20:33:43.898Z,93333.00
2023-03-05T20:38:00.345Z,93339.00
2023-03-05T20:42:03.963Z,93310.00
2023-03-05T20:46:26.048Z,93325.00
2023-03-05T20:50:30.082Z,93325.00
2023-03-05T20:54:33.758Z,93321.00
2023-03-05T20:59:37.911Z,93315.00
2023-03-05T21:03:43.133Z,93316.00
2023-03-05T21:07:46.877Z,93283.00
2023-03-05T21:11:56.074Z,93269.00
2023-03-05T21:15:59.743Z,93290.00
2023-03-05T21:20:06.078Z,93260.00
2023-03-05T21:24:50.661Z,93287.00
2023-03-05T21:28:55.289Z,93294.00
2023-03-05T21:33:24.767Z,93304.00
2023-03-05T21:37:29.935Z,93295.00
2023-03-05T21:41:33.605Z,93296.00
2023-03-05T21:45:38.958Z,93268.00
2023-03-05T21:49:42.596Z,93280.00
2023-03-05T21:53:47.697Z,93285.00
2023-03-05T21:57:55.128Z,93282.00
2023-03-05T22:01:59.142Z,93286.00
2023-03-05T22:06:27.850Z,93273.00
2023-03-05T22:10:32.941Z,93270.00
2023-03-05T22:14:37.580Z,93238.00
2023-03-05T22:18:41.094Z,93229.00
2023-03-05T22:22:50.056Z,93250.00
2023-03-05T22:26:54.999Z,93247.00
2023-03-05T22:30:59.416Z,93225.00
2023-03-05T22:35:07.974Z,93234.00
2023-03-05T22:39:11.611Z,93224.00
2023-03-05T22:43:18.786Z,93246.00
2023-03-05T22:47:22.447Z,93241.00
2023-03-05T22:51:28.386Z,93215.00
2023-03-05T22:55:32.075Z,93241.00
2023-03-05T22:59:38.129Z,93241.00
2023-03-05T23:03:41.867Z,93211.00
2023-03-05T23:07:49.501Z,93216.00
2023-03-05T23:11:53.203Z,93221.00
2023-03-05T23:15:58.295Z,93223.00
2023-03-05T23:20:55.275Z,93231.00
2023-03-05T23:24:58.845Z,93228.00
2023-03-05T23:29:03.572Z,93228.00
2023-03-05T23:33:12.300Z,93228.00
2023-03-05T23:37:15.882Z,93228.00
2023-03-05T23:41:19.503Z,93231.00
2023-03-05T23:45:24.364Z,93213.00
2023-03-05T23:49:29.342Z,93218.00
2023-03-05T23:53:33.098Z,93198.00
2023-03-05T23:58:02.950Z,93224.00
